createdAt,value
2018-03-23T00:01:14.655Z,6.60
2018-03-23T00:03:43.061Z,6.60
2018-03-23T00:06:11.825Z,6.60
2018-03-23T00:08:39.432Z,6.50
2018-03-23T00:11:06.976Z,6.50
2018-03-23T00:13:35.172Z,6.50
2018-03-23T00:16:02.653Z,6.50
2018-03-23T00:18:30.885Z,6.40
2018-03-23T00:20:58.332Z,6.50
2018-03-23T00:23:25.813Z,6.50
2018-03-23T00:26:17.854Z,6.50
2018-03-23T00:28:45.312Z,6.40
2018-03-23T00:31:18.825Z,6.40
2018-03-23T00:34:06.808Z,6.40
2018-03-23T00:36:57.823Z,6.40
2018-03-23T00:39:25.287Z,6.40
2018-03-23T00:41:52.733Z,6.40
2018-03-23T00:44:20.188Z,6.30
2018-03-23T00:47:17.241Z,6.30
2018-03-23T00:49:47.919Z,6.30
2018-03-23T00:52:16.155Z,6.30
2018-03-23T00:54:43.607Z,6.30
2018-03-23T00:57:11.040Z,6.20
2018-03-23T00:59:47.578Z,6.20
2018-03-23T01:02:15.056Z,6.20
2018-03-23T01:05:02.301Z,6.20
2018-03-23T01:07:29.805Z,6.10
2018-03-23T01:13:01.364Z,6.10
2018-03-23T01:15:35.172Z,6.10
2018-03-23T01:21:05.530Z,6.10
2018-03-23T01:23:47.718Z,6.10
2018-03-23T01:26:15.205Z,6.10
2018-03-23T01:31:35.955Z,6.10
2018-03-23T01:34:03.407Z,6.10
2018-03-23T01:39:34.336Z,6.10
2018-03-23T01:42:01.785Z,6.10
2018-03-23T01:47:22.540Z,6.10
2018-03-23T01:49:50.064Z,6.10
2018-03-23T01:52:17.583Z,6.10
2018-03-23T01:54:45.165Z,6.10
2018-03-23T01:57:12.630Z,6.10
2018-03-23T01:59:40.982Z,6.10
2018-03-23T02:05:02.527Z,6.10
2018-03-23T02:07:30.003Z,6.10
2018-03-23T02:13:00.555Z,6.10
2018-03-23T02:15:28.035Z,6.10
2018-03-23T02:20:57.634Z,6.00
2018-03-23T02:23:47.397Z,6.00
2018-03-23T02:26:25.416Z,6.00
2018-03-23T02:29:05.889Z,6.10
2018-03-23T02:31:33.379Z,5.90
2018-03-23T02:34:04.368Z,5.90
2018-03-23T02:36:31.856Z,5.80
2018-03-23T02:38:59.315Z,5.80
2018-03-23T02:41:46.673Z,5.80
2018-03-23T02:44:14.208Z,5.80
2018-03-23T02:46:42.553Z,5.80
2018-03-23T02:49:10.087Z,5.70
2018-03-23T02:51:37.650Z,5.60
2018-03-23T02:54:05.262Z,5.60
2018-03-23T02:56:32.847Z,5.50
2018-03-23T02:59:08.920Z,5.50
2018-03-23T03:01:36.448Z,5.60
2018-03-23T03:07:09.189Z,5.60
2018-03-23T03:12:40.827Z,5.80
2018-03-23T03:15:11.268Z,5.80
2018-03-23T03:17:39.259Z,5.90
2018-03-23T03:23:10.507Z,5.80
2018-03-23T03:25:38.099Z,5.80
2018-03-23T03:28:05.644Z,5.80
2018-03-23T03:30:33.325Z,5.70
2018-03-23T03:36:05.287Z,5.70
2018-03-23T03:38:33.592Z,5.70
2018-03-23T03:41:03.590Z,5.70
2018-03-23T03:43:31.978Z,5.70
2018-03-23T03:45:59.488Z,5.80
2018-03-23T03:48:26.988Z,5.80
2018-03-23T03:50:54.621Z,5.70
2018-03-23T03:53:22.154Z,5.70
2018-03-23T03:55:53.222Z,5.70
2018-03-23T03:58:37.340Z,5.70
2018-03-23T04:01:04.851Z,5.70
2018-03-23T04:03:32.367Z,5.70
2018-03-23T04:06:00.189Z,5.70
2018-03-23T04:08:27.793Z,8.30
2018-03-23T04:10:55.345Z,5.70
2018-03-23T04:13:23.641Z,5.70
2018-03-23T04:24:29.514Z,5.90
2018-03-23T04:27:05.491Z,5.90
2018-03-23T04:32:36.208Z,5.90
2018-03-23T04:35:03.740Z,6.00
2018-03-23T04:37:31.275Z,6.00
2018-03-23T04:40:17.887Z,6.00
2018-03-23T04:42:45.412Z,6.00
2018-03-23T04:45:12.958Z,6.00
2018-03-23T04:47:41.374Z,6.00
2018-03-23T04:50:08.985Z,6.00
2018-03-23T04:52:36.656Z,6.00
2018-03-23T04:55:04.222Z,5.90
2018-03-23T04:57:31.775Z,5.90
2018-03-23T04:59:59.316Z,5.90
2018-03-23T05:02:26.861Z,5.90
2018-03-23T05:04:54.471Z,5.80
2018-03-23T05:07:22.090Z,5.80
2018-03-23T05:09:49.788Z,5.80
2018-03-23T05:15:11.778Z,5.70
2018-03-23T05:17:39.312Z,5.80
2018-03-23T05:20:06.827Z,5.80
2018-03-23T05:22:48.293Z,5.80
2018-03-23T05:25:16.653Z,5.70
2018-03-23T05:27:44.174Z,5.70
2018-03-23T05:30:11.854Z,5.70
2018-03-23T05:32:49.022Z,5.70
2018-03-23T05:38:08.843Z,5.60
2018-03-23T05:43:48.640Z,5.70
2018-03-23T05:46:17.012Z,5.60
2018-03-23T05:48:44.544Z,5.60
2018-03-23T05:51:18.182Z,5.60
2018-03-23T05:53:45.849Z,5.60
2018-03-23T05:56:17.878Z,5.70
2018-03-23T05:58:46.013Z,5.60
2018-03-23T06:01:13.579Z,5.60
2018-03-23T06:03:41.258Z,5.60
2018-03-23T06:06:08.938Z,5.70
2018-03-23T06:08:39.927Z,5.70
2018-03-23T06:11:07.845Z,5.70
2018-03-23T06:13:35.352Z,5.70
2018-03-23T06:16:04.080Z,5.70
2018-03-23T06:18:31.632Z,5.70
2018-03-23T06:20:59.237Z,5.70
2018-03-23T06:23:26.769Z,5.70
2018-03-23T06:26:17.838Z,5.70
2018-03-23T06:28:45.369Z,5.70
2018-03-23T06:31:13.128Z,5.70
2018-03-23T06:33:40.658Z,5.70
2018-03-23T06:36:08.491Z,5.80
2018-03-23T06:41:39.990Z,5.80
2018-03-23T06:44:08.872Z,5.70
2018-03-23T06:46:36.570Z,5.70
2018-03-23T06:49:21.436Z,5.70
2018-03-23T06:51:49.737Z,5.80
2018-03-23T06:56:57.403Z,5.80
2018-03-23T06:59:25.926Z,5.80
2018-03-23T07:34:25.811Z,5.90
2018-03-23T07:36:54.504Z,5.90
2018-03-23T07:42:15.407Z,5.80
2018-03-23T07:44:43.332Z,5.90
2018-03-23T07:47:10.856Z,5.90
2018-03-23T07:49:38.480Z,6.00
2018-03-23T07:52:18.896Z,6.10
2018-03-23T07:57:49.512Z,6.20
2018-03-23T08:00:17.946Z,6.30
2018-03-23T08:03:05.444Z,6.50
2018-03-23T08:05:33.014Z,6.70
2018-03-23T08:11:03.637Z,7.00
2018-03-23T08:13:31.172Z,7.40
2018-03-23T08:16:05.249Z,7.60
2018-03-23T08:18:49.595Z,7.80
2018-03-23T08:21:17.204Z,7.80
2018-03-23T08:23:45.800Z,8.10
2018-03-23T08:26:13.398Z,8.20
2018-03-23T08:28:58.047Z,8.00
2018-03-23T08:31:25.580Z,7.90
2018-03-23T08:33:53.470Z,8.10
2018-03-23T08:39:14.817Z,8.30
2018-03-23T08:41:42.499Z,8.30
2018-03-23T08:44:10.167Z,8.50
2018-03-23T08:46:37.756Z,8.50
2018-03-23T08:49:23.340Z,8.80
2018-03-23T08:51:50.922Z,9.40
2018-03-23T08:54:20.314Z,10.20
2018-03-23T08:59:52.318Z,11.00
2018-03-23T09:02:47.947Z,10.40
2018-03-23T09:08:19.292Z,10.10
2018-03-23T09:10:47.800Z,10.00
2018-03-23T09:21:13.545Z,9.90
2018-03-23T09:23:48.293Z,9.60
2018-03-23T09:26:15.834Z,9.40
2018-03-23T09:28:43.363Z,9.20
2018-03-23T09:31:10.996Z,9.00
2018-03-23T09:33:47.908Z,9.20
2018-03-23T09:36:18.863Z,9.20
2018-03-23T09:41:39.695Z,8.90
2018-03-23T09:44:07.334Z,8.80
2018-03-23T09:49:39.127Z,8.50
2018-03-23T09:52:10.088Z,8.60
2018-03-23T09:54:39.173Z,8.60
2018-03-23T09:57:10.543Z,9.00
2018-03-23T09:59:38.238Z,9.00
2018-03-23T10:02:05.788Z,9.00
2018-03-23T10:04:33.295Z,9.10
2018-03-23T10:10:17.757Z,9.10
2018-03-23T10:12:45.291Z,9.10
2018-03-23T10:15:18.705Z,9.30
2018-03-23T10:21:19.917Z,9.30
2018-03-23T10:26:48.576Z,9.20
2018-03-23T10:29:16.587Z,9.50
2018-03-23T10:31:44.111Z,9.80
2018-03-23T10:34:11.654Z,9.50
2018-03-23T10:39:27.843Z,9.50
2018-03-23T10:44:58.924Z,10.30
2018-03-23T10:47:29.915Z,10.60
2018-03-23T10:49:58.164Z,11.20
2018-03-23T10:52:27.944Z,12.10
2018-03-23T10:54:55.890Z,13.10
2018-03-23T11:00:01.481Z,14.00
2018-03-23T11:02:47.238Z,13.60
2018-03-23T11:05:14.750Z,13.00
2018-03-23T11:07:42.284Z,12.70
2018-03-23T11:10:09.812Z,12.70
2018-03-23T11:12:37.405Z,11.40
2018-03-23T11:15:05.779Z,11.70
2018-03-23T11:17:33.311Z,11.90
2018-03-23T11:20:00.813Z,11.30
2018-03-23T11:22:28.337Z,11.70
2018-03-23T11:24:55.946Z,11.80
2018-03-23T11:27:24.458Z,10.90
2018-03-23T11:29:52.239Z,10.30
2018-03-23T11:35:06.308Z,10.10
2018-03-23T11:37:34.001Z,10.00
2018-03-23T11:40:02.317Z,9.70
2018-03-23T11:42:47.752Z,9.70
2018-03-23T11:45:15.250Z,9.90
2018-03-23T11:47:42.906Z,10.00
2018-03-23T11:50:10.714Z,10.00
2018-03-23T11:52:48.154Z,10.00
2018-03-23T11:55:15.689Z,9.90
2018-03-23T11:57:43.235Z,10.00
2018-03-23T12:00:10.740Z,10.00
2018-03-23T12:05:42.537Z,10.40
2018-03-23T12:11:36.681Z,10.20
2018-03-23T12:14:26.455Z,10.00
2018-03-23T12:16:54.018Z,10.00
2018-03-23T12:19:35.207Z,9.90
2018-03-23T12:22:03.142Z,9.90
2018-03-23T12:24:30.648Z,9.90
2018-03-23T12:26:58.572Z,9.80
2018-03-23T12:29:26.200Z,9.80
2018-03-23T12:32:07.123Z,9.90
2018-03-23T12:34:35.494Z,9.90
2018-03-23T12:37:03.798Z,9.70
2018-03-23T12:39:32.137Z,9.60
2018-03-23T12:41:59.822Z,9.60
2018-03-23T12:44:27.536Z,9.40
2018-03-23T12:46:55.230Z,9.40
2018-03-23T12:49:22.755Z,9.30
2018-03-23T12:51:50.312Z,9.20
2018-03-23T12:54:18.726Z,9.30
2018-03-23T12:56:46.344Z,9.10
2018-03-23T12:59:13.860Z,9.10
2018-03-23T13:01:41.999Z,9.10
2018-03-23T13:04:09.608Z,9.10
2018-03-23T13:06:37.126Z,9.10
2018-03-23T13:09:04.954Z,9.10
2018-03-23T13:11:33.547Z,9.20
2018-03-23T13:14:01.143Z,9.20
2018-03-23T13:16:29.426Z,9.20
2018-03-23T13:18:57.073Z,9.20
2018-03-23T13:21:24.658Z,9.10
2018-03-23T13:23:52.199Z,9.00
2018-03-23T13:26:19.755Z,8.90
2018-03-23T13:28:47.328Z,8.90
2018-03-23T13:31:15.062Z,9.00
2018-03-23T13:33:42.892Z,9.10
2018-03-23T13:36:10.969Z,9.00
2018-03-23T13:38:39.339Z,9.00
2018-03-23T13:41:07.137Z,9.20
2018-03-23T13:43:35.482Z,9.40
2018-03-23T13:46:03.755Z,9.60
2018-03-23T13:48:31.313Z,10.10
2018-03-23T13:50:58.833Z,10.50
2018-03-23T13:53:26.453Z,10.60
2018-03-23T13:55:54.037Z,12.00
2018-03-23T13:58:21.551Z,12.90
2018-03-23T14:00:54.829Z,12.10
2018-03-23T14:03:23.707Z,11.30
2018-03-23T14:05:52.258Z,10.50
2018-03-23T14:08:19.831Z,10.50
2018-03-23T14:10:47.440Z,10.60
2018-03-23T14:13:14.975Z,10.50
2018-03-23T14:15:42.578Z,10.60
2018-03-23T14:18:10.104Z,10.60
2018-03-23T14:20:37.729Z,10.60
2018-03-23T14:23:05.347Z,10.70
2018-03-23T14:25:33.406Z,9.90
2018-03-23T14:28:01.775Z,9.80
2018-03-23T14:30:29.483Z,9.50
2018-03-23T14:32:57.794Z,9.60
2018-03-23T14:35:25.394Z,9.10
2018-03-23T14:37:52.932Z,8.80
2018-03-23T14:40:20.458Z,8.70
2018-03-23T14:42:47.999Z,8.60
2018-03-23T14:45:15.630Z,8.50
2018-03-23T14:47:43.242Z,8.50
2018-03-23T14:50:10.893Z,8.40
2018-03-23T14:52:39.260Z,8.40
2018-03-23T14:55:06.882Z,8.50
2018-03-23T14:57:34.442Z,8.50
2018-03-23T15:00:02.034Z,8.50
2018-03-23T15:02:29.592Z,8.30
2018-03-23T15:04:57.161Z,8.40
2018-03-23T15:07:25.411Z,8.40
2018-03-23T15:09:53.006Z,8.40
2018-03-23T15:12:20.745Z,8.50
2018-03-23T15:14:48.353Z,8.40
2018-03-23T15:17:15.874Z,8.40
2018-03-23T15:19:43.552Z,8.60
2018-03-23T15:22:11.509Z,8.60
2018-03-23T15:24:39.158Z,8.40
2018-03-23T15:27:06.713Z,8.40
2018-03-23T15:29:35.057Z,8.40
2018-03-23T15:32:02.566Z,8.40
2018-03-23T15:34:30.092Z,8.50
2018-03-23T15:36:57.627Z,8.50
2018-03-23T15:39:25.181Z,8.30
2018-03-23T15:41:53.592Z,8.20
2018-03-23T15:44:21.205Z,8.10
2018-03-23T15:46:48.833Z,8.10
2018-03-23T15:49:16.435Z,8.10
2018-03-23T15:51:44.030Z,8.00
2018-03-23T15:54:11.947Z,8.00
2018-03-23T15:56:39.469Z,7.90
2018-03-23T15:59:07.120Z,7.90
2018-03-23T16:01:34.741Z,7.80
2018-03-23T16:04:03.078Z,7.90
2018-03-23T16:06:30.739Z,7.60
2018-03-23T16:08:58.279Z,7.70
2018-03-23T16:11:26.643Z,7.90
2018-03-23T16:13:54.320Z,7.80
2018-03-23T16:16:21.920Z,7.80
2018-03-23T16:18:49.588Z,7.80
2018-03-23T16:21:17.239Z,7.80
2018-03-23T16:23:45.656Z,7.80
2018-03-23T16:26:13.233Z,7.60
2018-03-23T16:28:41.153Z,7.60
2018-03-23T16:31:08.750Z,7.50
2018-03-23T16:33:37.059Z,7.50
2018-03-23T16:36:04.672Z,7.50
2018-03-23T16:38:32.273Z,7.50
2018-03-23T16:40:59.797Z,7.50
2018-03-23T16:43:27.323Z,7.40
2018-03-23T16:45:55.349Z,7.40
2018-03-23T16:48:23.740Z,7.40
2018-03-23T16:50:51.444Z,7.30
2018-03-23T16:53:19.054Z,7.40
2018-03-23T16:55:48.016Z,7.30
2018-03-23T16:58:15.565Z,7.30
2018-03-23T17:00:43.118Z,7.30
2018-03-23T17:03:11.169Z,7.30
2018-03-23T17:05:38.921Z,7.20
2018-03-23T17:08:06.588Z,7.20
2018-03-23T17:10:34.663Z,7.20
2018-03-23T17:13:02.284Z,7.20
2018-03-23T17:15:30.207Z,7.20
2018-03-23T17:17:58.198Z,7.10
2018-03-23T17:20:25.754Z,7.10
2018-03-23T17:22:53.327Z,7.10
2018-03-23T17:25:20.861Z,7.10
2018-03-23T17:27:48.583Z,7.10
2018-03-23T17:30:16.227Z,7.10
2018-03-23T17:32:45.001Z,7.00
2018-03-23T17:35:12.632Z,7.00
2018-03-23T17:37:40.317Z,6.90
2018-03-23T17:40:08.014Z,6.90
2018-03-23T17:42:35.677Z,6.90
2018-03-23T17:45:03.197Z,6.90
2018-03-23T17:47:30.809Z,6.80
2018-03-23T17:49:58.482Z,6.90
2018-03-23T17:52:26.186Z,6.90
2018-03-23T17:54:54.263Z,6.80
2018-03-23T17:57:22.684Z,6.80
2018-03-23T17:59:59.327Z,6.80
2018-03-23T18:02:27.697Z,6.70
2018-03-23T18:04:55.627Z,6.80
2018-03-23T18:07:23.909Z,6.80
2018-03-23T18:09:52.810Z,6.80
2018-03-23T18:12:21.498Z,6.80
2018-03-23T18:14:49.768Z,6.80
2018-03-23T18:17:18.141Z,6.80
2018-03-23T18:19:45.662Z,6.80
2018-03-23T18:22:13.656Z,6.70
2018-03-23T18:24:55.289Z,6.70
2018-03-23T18:27:23.509Z,6.70
2018-03-23T18:29:52.053Z,6.70
2018-03-23T18:32:21.765Z,6.70
2018-03-23T18:34:49.551Z,6.70
2018-03-23T18:37:18.214Z,6.70
2018-03-23T18:39:49.786Z,6.60
2018-03-23T18:42:17.290Z,6.60
2018-03-23T18:44:44.804Z,6.60
2018-03-23T18:47:12.413Z,6.60
2018-03-23T18:49:39.967Z,6.60
2018-03-23T18:52:07.551Z,6.50
2018-03-23T18:54:36.300Z,6.50
2018-03-23T18:57:04.266Z,6.50
2018-03-23T18:59:37.485Z,6.60
2018-03-23T19:02:18.815Z,6.60
2018-03-23T19:04:46.444Z,6.60
2018-03-23T19:07:17.886Z,6.50
2018-03-23T19:09:47.691Z,6.50
2018-03-23T19:12:15.643Z,6.50
2018-03-23T19:14:43.220Z,6.50
2018-03-23T19:19:55.257Z,6.50
2018-03-23T19:22:22.903Z,6.50
2018-03-23T19:30:22.079Z,6.40
2018-03-23T19:32:55.061Z,6.30
2018-03-23T19:38:20.273Z,6.40
2018-03-23T19:40:47.872Z,6.30
2018-03-23T19:43:17.104Z,6.30
2018-03-23T19:45:44.703Z,6.30
2018-03-23T19:48:12.876Z,6.40
2018-03-23T19:50:42.180Z,6.40
2018-03-23T19:53:09.906Z,6.30
2018-03-23T19:55:48.726Z,6.30
2018-03-23T20:01:02.806Z,6.30
2018-03-23T20:03:30.430Z,6.30
2018-03-23T20:05:58.032Z,6.30
2018-03-23T20:08:25.829Z,6.20
2018-03-23T20:10:53.385Z,6.20
2018-03-23T20:13:41.839Z,6.30
2018-03-23T20:16:16.470Z,6.30
2018-03-23T20:18:44.469Z,6.30
2018-03-23T20:21:12.126Z,6.20
2018-03-23T20:23:48.131Z,6.20
2018-03-23T20:26:16.427Z,6.20
2018-03-23T20:28:50.507Z,6.20
2018-03-23T20:34:14.837Z,6.30
2018-03-23T20:36:42.608Z,6.20
2018-03-23T20:39:10.262Z,6.20
2018-03-23T20:41:37.947Z,6.10
2018-03-23T20:44:06.526Z,6.10
2018-03-23T20:46:35.710Z,6.10
2018-03-23T20:51:56.429Z,6.10
2018-03-23T20:54:24.552Z,6.10
2018-03-23T20:56:52.144Z,6.00
2018-03-23T20:59:37.120Z,6.00
2018-03-23T21:02:06.030Z,6.00
2018-03-23T21:17:05.132Z,5.90
2018-03-23T21:19:33.727Z,5.90
2018-03-23T21:22:18.240Z,5.90
2018-03-23T21:24:45.977Z,5.90
2018-03-23T21:27:19.468Z,5.90
2018-03-23T21:35:32.282Z,5.90
2018-03-23T21:38:00.331Z,5.90
2018-03-23T21:40:28.300Z,5.90
2018-03-23T21:42:55.882Z,5.90
2018-03-23T21:45:25.414Z,5.90
2018-03-23T21:48:10.380Z,5.90
2018-03-23T21:50:41.161Z,5.90
2018-03-23T21:53:09.037Z,5.90
2018-03-23T21:55:44.609Z,5.80
2018-03-23T21:58:32.557Z,5.80
2018-03-23T22:01:00.546Z,5.80
2018-03-23T22:03:28.871Z,5.90
2018-03-23T22:08:39.680Z,5.90
2018-03-23T22:11:07.381Z,5.90
2018-03-23T22:13:35.040Z,5.90
2018-03-23T22:19:07.568Z,5.80
2018-03-23T22:21:38.273Z,5.80
2018-03-23T22:26:44.737Z,5.80
2018-03-23T22:29:26.374Z,5.80
2018-03-23T22:31:54.459Z,5.80
2018-03-23T22:37:00.989Z,5.80
2018-03-23T22:39:28.630Z,5.80
2018-03-23T22:41:56.188Z,5.70
2018-03-23T22:44:23.790Z,5.70
2018-03-23T22:49:51.047Z,5.70
2018-03-23T22:52:41.693Z,5.70
2018-03-23T22:55:09.364Z,5.70
2018-03-23T22:57:36.943Z,5.60
2018-03-23T23:00:05.289Z,5.60
2018-03-23T23:02:33.088Z,5.50
2018-03-23T23:05:00.717Z,5.50
2018-03-23T23:07:28.303Z,5.50
2018-03-23T23:09:56.336Z,5.50
2018-03-23T23:15:26.726Z,5.50
2018-03-23T23:17:54.304Z,5.40
2018-03-23T23:20:22.345Z,5.30
2018-03-23T23:22:50.005Z,5.20
2018-03-23T23:25:17.599Z,5.20
2018-03-23T23:27:45.213Z,5.10
2018-03-23T23:30:25.685Z,5.00
2018-03-23T23:32:53.379Z,5.00
2018-03-23T23:35:21.050Z,4.90
2018-03-23T23:44:05.596Z,4.70
2018-03-23T23:46:35.192Z,4.60
2018-03-23T23:49:03.363Z,4.60
2018-03-23T23:51:30.992Z,4.50
2018-03-23T23:53:58.691Z,4.30
2018-03-23T23:56:26.235Z,4.30
